sensor_id;sensor_type;location;lat;lon;timestamp;temperature;humidity
38902;DHT22;24661;53.566;9.910;2023-05-14T00:00:42;12.20;99.90
38902;DHT22;24661;53.566;9.910;2023-05-14T00:03:07;12.20;99.90
38902;DHT22;24661;53.566;9.910;2023-05-14T00:05:33;12.10;99.90
38902;DHT22;24661;53.566;9.910;2023-05-14T00:07:58;12.10;99.90
38902;DHT22;24661;53.566;9.910;2023-05-14T00:10:24;12.10;99.90
38902;DHT22;24661;53.566;9.910;2023-05-14T00:12:50;12.10;99.90
38902;DHT22;24661;53.566;9.910;2023-05-14T00:15:16;12.10;99.90
38902;DHT22;24661;53.566;9.910;2023-05-14T00:17:42;12.00;99.90
38902;DHT22;24661;53.566;9.910;2023-05-14T00:20:08;12.00;99.90
38902;DHT22;24661;53.566;9.910;2023-05-14T00:22:35;11.70;99.90
38902;DHT22;24661;53.566;9.910;2023-05-14T00:25:01;11.90;99.90
38902;DHT22;24661;53.566;9.910;2023-05-14T00:27:27;11.90;99.90
38902;DHT22;24661;53.566;9.910;2023-05-14T00:29:53;11.80;99.90
38902;DHT22;24661;53.566;9.910;2023-05-14T00:32:18;11.80;99.90
38902;DHT22;24661;53.566;9.910;2023-05-14T00:34:44;11.80;99.90
38902;DHT22;24661;53.566;9.910;2023-05-14T00:37:09;11.80;99.90
38902;DHT22;24661;53.566;9.910;2023-05-14T00:39:35;11.70;99.90
38902;DHT22;24661;53.566;9.910;2023-05-14T00:42:00;11.70;99.90
38902;DHT22;24661;53.566;9.910;2023-05-14T00:44:26;11.70;99.90
38902;DHT22;24661;53.566;9.910;2023-05-14T00:46:52;11.70;99.90
38902;DHT22;24661;53.566;9.910;2023-05-14T00:49:18;11.60;99.90
38902;DHT22;24661;53.566;9.910;2023-05-14T00:51:43;11.60;99.90
38902;DHT22;24661;53.566;9.910;2023-05-14T00:54:16;11.60;99.90
38902;DHT22;24661;53.566;9.910;2023-05-14T00:56:45;11.60;99.90
38902;DHT22;24661;53.566;9.910;2023-05-14T00:59:12;11.60;99.90
38902;DHT22;24661;53.566;9.910;2023-05-14T01:01:38;11.50;99.90
38902;DHT22;24661;53.566;9.910;2023-05-14T01:04:05;10.40;99.90
38902;DHT22;24661;53.566;9.910;2023-05-14T01:06:44;11.40;99.90
38902;DHT22;24661;53.566;9.910;2023-05-14T01:09:25;11.40;99.90
38902;DHT22;24661;53.566;9.910;2023-05-14T01:17:10;11.30;99.90
38902;DHT22;24661;53.566;9.910;2023-05-14T01:19:41;11.30;99.90
38902;DHT22;24661;53.566;9.910;2023-05-14T01:22:07;11.30;99.90
38902;DHT22;24661;53.566;9.910;2023-05-14T01:24:33;11.30;99.90
38902;DHT22;24661;53.566;9.910;2023-05-14T01:29:45;11.30;99.90
38902;DHT22;24661;53.566;9.910;2023-05-14T01:32:14;11.30;99.90
38902;DHT22;24661;53.566;9.910;2023-05-14T01:34:41;11.30;99.90
38902;DHT22;24661;53.566;9.910;2023-05-14T01:37:08;11.30;99.90
38902;DHT22;24661;53.566;9.910;2023-05-14T01:39:36;11.30;99.90
38902;DHT22;24661;53.566;9.910;2023-05-14T01:42:03;11.30;99.90
38902;DHT22;24661;53.566;9.910;2023-05-14T01:44:29;11.30;99.90
38902;DHT22;24661;53.566;9.910;2023-05-14T01:46:55;11.20;99.90
38902;DHT22;24661;53.566;9.910;2023-05-14T01:49:21;11.10;99.90
38902;DHT22;24661;53.566;9.910;2023-05-14T01:51:47;11.10;99.90
38902;DHT22;24661;53.566;9.910;2023-05-14T01:54:12;11.10;99.90
38902;DHT22;24661;53.566;9.910;2023-05-14T01:56:38;11.20;99.90
38902;DHT22;24661;53.566;9.910;2023-05-14T01:59:03;11.10;99.90
38902;DHT22;24661;53.566;9.910;2023-05-14T02:01:29;11.00;99.90
38902;DHT22;24661;53.566;9.910;2023-05-14T02:03:54;11.10;99.90
38902;DHT22;24661;53.566;9.910;2023-05-14T02:06:21;11.10;99.90
38902;DHT22;24661;53.566;9.910;2023-05-14T02:08:46;11.10;99.90
38902;DHT22;24661;53.566;9.910;2023-05-14T02:11:12;11.10;99.90
38902;DHT22;24661;53.566;9.910;2023-05-14T02:13:37;11.10;99.90
38902;DHT22;24661;53.566;9.910;2023-05-14T02:16:03;11.10;99.90
38902;DHT22;24661;53.566;9.910;2023-05-14T02:18:29;11.00;99.90
38902;DHT22;24661;53.566;9.910;2023-05-14T02:20:55;11.00;99.90
38902;DHT22;24661;53.566;9.910;2023-05-14T02:23:21;11.00;99.90
38902;DHT22;24661;53.566;9.910;2023-05-14T02:25:47;11.00;99.90
38902;DHT22;24661;53.566;9.910;2023-05-14T02:28:13;11.00;99.90
38902;DHT22;24661;53.566;9.910;2023-05-14T02:30:38;11.00;99.90
38902;DHT22;24661;53.566;9.910;2023-05-14T02:33:04;11.00;99.90
38902;DHT22;24661;53.566;9.910;2023-05-14T02:35:30;11.00;99.90
38902;DHT22;24661;53.566;9.910;2023-05-14T02:37:55;11.00;99.90
38902;DHT22;24661;53.566;9.910;2023-05-14T02:40:21;11.00;99.90
38902;DHT22;24661;53.566;9.910;2023-05-14T02:42:46;10.90;99.90
38902;DHT22;24661;53.566;9.910;2023-05-14T02:45:12;10.40;99.90
38902;DHT22;24661;53.566;9.910;2023-05-14T02:47:37;10.90;99.90
38902;DHT22;24661;53.566;9.910;2023-05-14T02:50:04;10.90;99.90
38902;DHT22;24661;53.566;9.910;2023-05-14T02:52:30;10.90;99.90
38902;DHT22;24661;53.566;9.910;2023-05-14T02:54:56;10.80;99.90
38902;DHT22;24661;53.566;9.910;2023-05-14T02:57:21;10.80;99.90
38902;DHT22;24661;53.566;9.910;2023-05-14T02:59:47;10.80;99.90
38902;DHT22;24661;53.566;9.910;2023-05-14T03:02:12;10.80;99.90
38902;DHT22;24661;53.566;9.910;2023-05-14T03:04:38;10.70;99.90
38902;DHT22;24661;53.566;9.910;2023-05-14T03:07:04;10.70;99.90
38902;DHT22;24661;53.566;9.910;2023-05-14T03:09:29;10.70;99.90
38902;DHT22;24661;53.566;9.910;2023-05-14T03:11:55;10.70;99.90
38902;DHT22;24661;53.566;9.910;2023-05-14T03:14:21;10.70;99.90
38902;DHT22;24661;53.566;9.910;2023-05-14T03:16:46;10.70;99.90
38902;DHT22;24661;53.566;9.910;2023-05-14T03:19:12;10.70;99.90
38902;DHT22;24661;53.566;9.910;2023-05-14T03:21:37;10.70;99.90
38902;DHT22;24661;53.566;9.910;2023-05-14T03:24:03;10.60;99.90
38902;DHT22;24661;53.566;9.910;2023-05-14T03:26:29;10.60;99.90
38902;DHT22;24661;53.566;9.910;2023-05-14T03:28:54;10.60;99.90
38902;DHT22;24661;53.566;9.910;2023-05-14T03:31:20;10.60;99.90
38902;DHT22;24661;53.566;9.910;2023-05-14T03:33:45;10.60;99.90
38902;DHT22;24661;53.566;9.910;2023-05-14T03:36:11;9.40;99.90
38902;DHT22;24661;53.566;9.910;2023-05-14T03:38:36;10.60;99.90
38902;DHT22;24661;53.566;9.910;2023-05-14T03:41:02;10.60;99.90
38902;DHT22;24661;53.566;9.910;2023-05-14T03:43:28;10.60;99.90
38902;DHT22;24661;53.566;9.910;2023-05-14T03:45:53;10.70;99.90
38902;DHT22;24661;53.566;9.910;2023-05-14T03:48:19;10.70;99.90
38902;DHT22;24661;53.566;9.910;2023-05-14T03:50:44;10.60;99.90
38902;DHT22;24661;53.566;9.910;2023-05-14T03:53:10;10.60;99.90
38902;DHT22;24661;53.566;9.910;2023-05-14T03:55:36;10.60;99.90
38902;DHT22;24661;53.566;9.910;2023-05-14T03:58:01;10.60;99.90
38902;DHT22;24661;53.566;9.910;2023-05-14T04:00:28;10.60;99.90
38902;DHT22;24661;53.566;9.910;2023-05-14T04:02:53;10.60;99.90
38902;DHT22;24661;53.566;9.910;2023-05-14T04:05:19;10.60;99.90
38902;DHT22;24661;53.566;9.910;2023-05-14T04:07:45;10.60;99.90
38902;DHT22;24661;53.566;9.910;2023-05-14T04:10:11;10.60;99.90
38902;DHT22;24661;53.566;9.910;2023-05-14T04:12:37;10.70;99.90
38902;DHT22;24661;53.566;9.910;2023-05-14T04:15:04;10.70;99.90
38902;DHT22;24661;53.566;9.910;2023-05-14T04:17:29;10.80;99.90
38902;DHT22;24661;53.566;9.910;2023-05-14T04:19:55;10.80;99.90
38902;DHT22;24661;53.566;9.910;2023-05-14T04:22:20;10.70;99.90
38902;DHT22;24661;53.566;9.910;2023-05-14T04:24:46;10.70;99.90
38902;DHT22;24661;53.566;9.910;2023-05-14T04:27:19;10.70;99.90
38902;DHT22;24661;53.566;9.910;2023-05-14T04:29:50;10.80;99.90
38902;DHT22;24661;53.566;9.910;2023-05-14T04:32:16;10.80;99.90
38902;DHT22;24661;53.566;9.910;2023-05-14T04:34:42;10.90;99.90
38902;DHT22;24661;53.566;9.910;2023-05-14T04:37:10;10.90;99.90
38902;DHT22;24661;53.566;9.910;2023-05-14T04:39:36;10.90;99.90
38902;DHT22;24661;53.566;9.910;2023-05-14T04:42:02;11.00;99.90
38902;DHT22;24661;53.566;9.910;2023-05-14T04:44:28;11.10;99.90
38902;DHT22;24661;53.566;9.910;2023-05-14T04:46:53;11.20;99.90
38902;DHT22;24661;53.566;9.910;2023-05-14T04:49:19;11.30;99.90
38902;DHT22;24661;53.566;9.910;2023-05-14T04:51:45;11.50;99.90
38902;DHT22;24661;53.566;9.910;2023-05-14T04:54:12;11.60;99.90
38902;DHT22;24661;53.566;9.910;2023-05-14T04:56:38;11.70;99.90
38902;DHT22;24661;53.566;9.910;2023-05-14T04:59:03;11.80;99.90
38902;DHT22;24661;53.566;9.910;2023-05-14T05:01:29;11.90;99.90
38902;DHT22;24661;53.566;9.910;2023-05-14T05:03:54;12.00;99.90
38902;DHT22;24661;53.566;9.910;2023-05-14T05:06:22;12.10;99.90
38902;DHT22;24661;53.566;9.910;2023-05-14T05:08:47;12.30;99.90
38902;DHT22;24661;53.566;9.910;2023-05-14T05:11:13;12.50;99.90
38902;DHT22;24661;53.566;9.910;2023-05-14T05:13:38;12.70;99.90
38902;DHT22;24661;53.566;9.910;2023-05-14T05:16:04;12.80;99.90
38902;DHT22;24661;53.566;9.910;2023-05-14T05:18:30;12.90;99.90
38902;DHT22;24661;53.566;9.910;2023-05-14T05:20:55;13.00;99.90
38902;DHT22;24661;53.566;9.910;2023-05-14T05:23:21;13.10;99.90
38902;DHT22;24661;53.566;9.910;2023-05-14T05:25:48;13.20;99.90
38902;DHT22;24661;53.566;9.910;2023-05-14T05:28:15;13.20;99.90
38902;DHT22;24661;53.566;9.910;2023-05-14T05:30:41;13.30;99.90
38902;DHT22;24661;53.566;9.910;2023-05-14T05:33:09;13.40;99.90
38902;DHT22;24661;53.566;9.910;2023-05-14T05:35:35;13.50;99.90
38902;DHT22;24661;53.566;9.910;2023-05-14T05:38:01;13.60;99.90
38902;DHT22;24661;53.566;9.910;2023-05-14T05:40:26;13.70;99.90
38902;DHT22;24661;53.566;9.910;2023-05-14T05:42:52;13.80;99.90
38902;DHT22;24661;53.566;9.910;2023-05-14T05:45:17;13.90;99.90
38902;DHT22;24661;53.566;9.910;2023-05-14T05:47:43;13.90;99.90
38902;DHT22;24661;53.566;9.910;2023-05-14T05:50:09;14.00;99.90
38902;DHT22;24661;53.566;9.910;2023-05-14T05:52:38;14.10;99.90
38902;DHT22;24661;53.566;9.910;2023-05-14T05:55:04;14.20;99.90
38902;DHT22;24661;53.566;9.910;2023-05-14T05:57:29;14.30;99.90
38902;DHT22;24661;53.566;9.910;2023-05-14T05:59:55;14.40;99.90
38902;DHT22;24661;53.566;9.910;2023-05-14T06:02:20;14.50;99.90
38902;DHT22;24661;53.566;9.910;2023-05-14T06:04:46;14.60;99.90
38902;DHT22;24661;53.566;9.910;2023-05-14T06:07:11;14.70;99.90
38902;DHT22;24661;53.566;9.910;2023-05-14T06:09:37;14.80;99.90
38902;DHT22;24661;53.566;9.910;2023-05-14T06:12:03;14.80;99.90
38902;DHT22;24661;53.566;9.910;2023-05-14T06:14:28;14.90;99.90
38902;DHT22;24661;53.566;9.910;2023-05-14T06:16:54;15.00;99.90
38902;DHT22;24661;53.566;9.910;2023-05-14T06:19:20;15.00;99.90
38902;DHT22;24661;53.566;9.910;2023-05-14T06:21:46;15.10;99.90
38902;DHT22;24661;53.566;9.910;2023-05-14T06:24:11;15.20;99.90
38902;DHT22;24661;53.566;9.910;2023-05-14T06:26:37;15.20;99.90
38902;DHT22;24661;53.566;9.910;2023-05-14T06:29:03;15.30;99.90
38902;DHT22;24661;53.566;9.910;2023-05-14T06:31:28;15.30;99.90
38902;DHT22;24661;53.566;9.910;2023-05-14T06:33:54;15.40;99.90
38902;DHT22;24661;53.566;9.910;2023-05-14T06:36:19;15.40;99.90
38902;DHT22;24661;53.566;9.910;2023-05-14T06:38:45;15.50;99.90
38902;DHT22;24661;53.566;9.910;2023-05-14T06:41:10;15.50;99.90
38902;DHT22;24661;53.566;9.910;2023-05-14T06:43:36;16.80;99.90
38902;DHT22;24661;53.566;9.910;2023-05-14T06:46:02;15.70;99.90
38902;DHT22;24661;53.566;9.910;2023-05-14T06:48:27;15.80;99.90
38902;DHT22;24661;53.566;9.910;2023-05-14T06:50:54;15.90;99.90
38902;DHT22;24661;53.566;9.910;2023-05-14T06:53:19;16.00;99.90
38902;DHT22;24661;53.566;9.910;2023-05-14T06:55:46;16.00;99.90
38902;DHT22;24661;53.566;9.910;2023-05-14T06:58:12;16.10;99.90
38902;DHT22;24661;53.566;9.910;2023-05-14T07:00:39;16.20;99.90
38902;DHT22;24661;53.566;9.910;2023-05-14T07:03:04;16.30;99.90
38902;DHT22;24661;53.566;9.910;2023-05-14T07:05:30;16.50;99.90
38902;DHT22;24661;53.566;9.910;2023-05-14T07:07:56;16.60;99.90
38902;DHT22;24661;53.566;9.910;2023-05-14T07:10:22;16.70;99.90
38902;DHT22;24661;53.566;9.910;2023-05-14T07:12:48;16.80;99.90
38902;DHT22;24661;53.566;9.910;2023-05-14T07:15:13;16.90;99.90
38902;DHT22;24661;53.566;9.910;2023-05-14T07:17:39;17.00;99.90
38902;DHT22;24661;53.566;9.910;2023-05-14T07:20:06;17.00;99.90
38902;DHT22;24661;53.566;9.910;2023-05-14T07:22:32;17.10;99.90
38902;DHT22;24661;53.566;9.910;2023-05-14T07:24:57;17.20;99.90
38902;DHT22;24661;53.566;9.910;2023-05-14T07:27:23;17.30;99.90
38902;DHT22;24661;53.566;9.910;2023-05-14T07:29:49;17.30;99.90
38902;DHT22;24661;53.566;9.910;2023-05-14T07:32:15;17.50;99.90
38902;DHT22;24661;53.566;9.910;2023-05-14T07:34:41;17.60;99.90
38902;DHT22;24661;53.566;9.910;2023-05-14T07:37:06;17.70;99.90
38902;DHT22;24661;53.566;9.910;2023-05-14T07:39:32;17.80;99.90
38902;DHT22;24661;53.566;9.910;2023-05-14T07:41:58;17.90;99.90
38902;DHT22;24661;53.566;9.910;2023-05-14T07:44:24;18.00;99.90
38902;DHT22;24661;53.566;9.910;2023-05-14T07:46:51;18.10;99.90
38902;DHT22;24661;53.566;9.910;2023-05-14T07:49:16;18.30;99.90
38902;DHT22;24661;53.566;9.910;2023-05-14T07:51:42;18.20;99.90
38902;DHT22;24661;53.566;9.910;2023-05-14T07:54:07;18.40;99.90
38902;DHT22;24661;53.566;9.910;2023-05-14T07:56:33;18.50;99.90
38902;DHT22;24661;53.566;9.910;2023-05-14T07:58:58;18.60;99.90
38902;DHT22;24661;53.566;9.910;2023-05-14T08:01:24;18.70;99.90
38902;DHT22;24661;53.566;9.910;2023-05-14T08:03:54;18.80;99.90
38902;DHT22;24661;53.566;9.910;2023-05-14T08:06:19;18.90;99.90
38902;DHT22;24661;53.566;9.910;2023-05-14T08:08:46;18.90;99.90
38902;DHT22;24661;53.566;9.910;2023-05-14T08:11:11;18.90;99.90
38902;DHT22;24661;53.566;9.910;2023-05-14T08:13:37;19.00;99.90
38902;DHT22;24661;53.566;9.910;2023-05-14T08:16:02;19.00;99.90
38902;DHT22;24661;53.566;9.910;2023-05-14T08:18:28;19.20;99.90
38902;DHT22;24661;53.566;9.910;2023-05-14T08:20:54;19.10;99.90
38902;DHT22;24661;53.566;9.910;2023-05-14T08:23:19;19.20;99.90
38902;DHT22;24661;53.566;9.910;2023-05-14T08:25:45;19.30;99.90
38902;DHT22;24661;53.566;9.910;2023-05-14T08:28:10;19.30;99.90
38902;DHT22;24661;53.566;9.910;2023-05-14T08:30:36;19.40;99.90
38902;DHT22;24661;53.566;9.910;2023-05-14T08:33:01;19.60;99.90
38902;DHT22;24661;53.566;9.910;2023-05-14T08:35:27;19.60;99.90
38902;DHT22;24661;53.566;9.910;2023-05-14T08:37:53;19.60;99.90
38902;DHT22;24661;53.566;9.910;2023-05-14T08:40:18;19.50;99.90
38902;DHT22;24661;53.566;9.910;2023-05-14T08:42:44;19.50;99.90
38902;DHT22;24661;53.566;9.910;2023-05-14T08:45:20;19.50;99.90
38902;DHT22;24661;53.566;9.910;2023-05-14T08:47:47;19.70;99.90
38902;DHT22;24661;53.566;9.910;2023-05-14T08:50:16;19.90;99.90
38902;DHT22;24661;53.566;9.910;2023-05-14T08:52:42;20.10;99.90
38902;DHT22;24661;53.566;9.910;2023-05-14T08:55:09;20.10;99.90
38902;DHT22;24661;53.566;9.910;2023-05-14T08:57:36;20.30;99.90
38902;DHT22;24661;53.566;9.910;2023-05-14T09:00:03;20.30;99.90
38902;DHT22;24661;53.566;9.910;2023-05-14T09:02:36;20.50;99.90
38902;DHT22;24661;53.566;9.910;2023-05-14T09:05:03;20.60;99.90
38902;DHT22;24661;53.566;9.910;2023-05-14T09:07:29;20.60;99.90
38902;DHT22;24661;53.566;9.910;2023-05-14T09:09:55;20.60;99.90
38902;DHT22;24661;53.566;9.910;2023-05-14T09:12:21;20.60;99.90
38902;DHT22;24661;53.566;9.910;2023-05-14T09:14:48;20.60;99.90
38902;DHT22;24661;53.566;9.910;2023-05-14T09:17:14;20.60;99.90
38902;DHT22;24661;53.566;9.910;2023-05-14T09:19:41;20.60;99.90
38902;DHT22;24661;53.566;9.910;2023-05-14T09:22:10;20.60;99.90
38902;DHT22;24661;53.566;9.910;2023-05-14T09:24:36;20.80;99.90
38902;DHT22;24661;53.566;9.910;2023-05-14T09:27:06;20.90;99.90
38902;DHT22;24661;53.566;9.910;2023-05-14T09:29:32;20.90;99.90
38902;DHT22;24661;53.566;9.910;2023-05-14T09:31:59;20.90;99.90
38902;DHT22;24661;53.566;9.910;2023-05-14T09:37:04;21.00;99.90
38902;DHT22;24661;53.566;9.910;2023-05-14T09:39:31;21.20;99.90
38902;DHT22;24661;53.566;9.910;2023-05-14T09:41:57;21.20;99.90
38902;DHT22;24661;53.566;9.910;2023-05-14T09:44:23;21.30;99.90
38902;DHT22;24661;53.566;9.910;2023-05-14T09:46:50;21.20;99.90
38902;DHT22;24661;53.566;9.910;2023-05-14T09:49:16;21.40;99.90
38902;DHT22;24661;53.566;9.910;2023-05-14T09:51:41;21.50;99.90
38902;DHT22;24661;53.566;9.910;2023-05-14T09:54:07;21.20;99.90
38902;DHT22;24661;53.566;9.910;2023-05-14T09:56:34;21.00;99.90
38902;DHT22;24661;53.566;9.910;2023-05-14T09:59:00;21.00;99.90
38902;DHT22;24661;53.566;9.910;2023-05-14T10:01:28;21.10;99.90
38902;DHT22;24661;53.566;9.910;2023-05-14T10:03:54;21.00;99.90
38902;DHT22;24661;53.566;9.910;2023-05-14T10:06:26;20.90;99.90
38902;DHT22;24661;53.566;9.910;2023-05-14T10:08:55;21.10;99.90
38902;DHT22;24661;53.566;9.910;2023-05-14T10:11:24;21.20;99.90
38902;DHT22;24661;53.566;9.910;2023-05-14T10:14:07;21.20;99.90
38902;DHT22;24661;53.566;9.910;2023-05-14T10:16:44;21.40;99.90
38902;DHT22;24661;53.566;9.910;2023-05-14T10:19:11;21.60;99.90
38902;DHT22;24661;53.566;9.910;2023-05-14T10:21:41;21.70;99.90
38902;DHT22;24661;53.566;9.910;2023-05-14T10:24:09;21.80;99.90
38902;DHT22;24661;53.566;9.910;2023-05-14T10:26:37;22.00;99.90
38902;DHT22;24661;53.566;9.910;2023-05-14T10:29:09;22.00;99.90
38902;DHT22;24661;53.566;9.910;2023-05-14T10:31:52;22.00;99.90
38902;DHT22;24661;53.566;9.910;2023-05-14T10:34:31;22.10;99.90
38902;DHT22;24661;53.566;9.910;2023-05-14T10:37:01;22.30;99.90
38902;DHT22;24661;53.566;9.910;2023-05-14T10:42:07;22.10;99.60
38902;DHT22;24661;53.566;9.910;2023-05-14T10:44:34;22.10;99.90
38902;DHT22;24661;53.566;9.910;2023-05-14T10:47:01;22.00;99.90
38902;DHT22;24661;53.566;9.910;2023-05-14T10:49:26;22.00;99.90
38902;DHT22;24661;53.566;9.910;2023-05-14T10:51:53;22.00;99.40
38902;DHT22;24661;53.566;9.910;2023-05-14T10:54:18;21.80;98.70
38902;DHT22;24661;53.566;9.910;2023-05-14T10:56:48;21.80;99.00
38902;DHT22;24661;53.566;9.910;2023-05-14T10:59:15;22.00;99.90
38902;DHT22;24661;53.566;9.910;2023-05-14T11:01:42;22.20;99.90
38902;DHT22;24661;53.566;9.910;2023-05-14T11:04:07;22.30;99.90
38902;DHT22;24661;53.566;9.910;2023-05-14T11:06:34;22.50;99.50
38902;DHT22;24661;53.566;9.910;2023-05-14T11:09:02;22.60;98.70
38902;DHT22;24661;53.566;9.910;2023-05-14T11:11:29;22.40;97.80
38902;DHT22;24661;53.566;9.910;2023-05-14T11:13:55;22.10;98.60
38902;DHT22;24661;53.566;9.910;2023-05-14T11:16:21;22.40;99.40
38902;DHT22;24661;53.566;9.910;2023-05-14T11:18:52;22.30;97.60
38902;DHT22;24661;53.566;9.910;2023-05-14T11:21:19;22.30;99.80
38902;DHT22;24661;53.566;9.910;2023-05-14T11:23:47;22.10;97.80
38902;DHT22;24661;53.566;9.910;2023-05-14T11:26:13;22.10;98.80
38902;DHT22;24661;53.566;9.910;2023-05-14T11:28:39;22.10;99.40
38902;DHT22;24661;53.566;9.910;2023-05-14T11:31:04;22.10;98.40
38902;DHT22;24661;53.566;9.910;2023-05-14T11:33:30;22.10;98.60
38902;DHT22;24661;53.566;9.910;2023-05-14T11:35:56;22.10;99.10
38902;DHT22;24661;53.566;9.910;2023-05-14T11:38:21;22.00;97.70
38902;DHT22;24661;53.566;9.910;2023-05-14T11:40:51;22.10;98.50
38902;DHT22;24661;53.566;9.910;2023-05-14T11:43:18;21.90;97.90
38902;DHT22;24661;53.566;9.910;2023-05-14T11:45:51;21.80;98.80
38902;DHT22;24661;53.566;9.910;2023-05-14T11:48:17;21.90;99.40
38902;DHT22;24661;53.566;9.910;2023-05-14T11:50:47;22.00;99.40
38902;DHT22;24661;53.566;9.910;2023-05-14T11:53:40;22.20;99.10
38902;DHT22;24661;53.566;9.910;2023-05-14T11:56:05;22.50;97.40
38902;DHT22;24661;53.566;9.910;2023-05-14T11:58:32;22.50;97.30
38902;DHT22;24661;53.566;9.910;2023-05-14T12:01:00;22.30;97.20
38902;DHT22;24661;53.566;9.910;2023-05-14T12:03:25;22.20;97.00
38902;DHT22;24661;53.566;9.910;2023-05-14T12:05:58;22.30;98.40
38902;DHT22;24661;53.566;9.910;2023-05-14T12:08:31;22.40;96.70
38902;DHT22;24661;53.566;9.910;2023-05-14T12:10:58;22.50;96.90
38902;DHT22;24661;53.566;9.910;2023-05-14T12:13:28;22.50;95.60
38902;DHT22;24661;53.566;9.910;2023-05-14T12:15:58;21.90;95.40
38902;DHT22;24661;53.566;9.910;2023-05-14T12:18:26;22.20;95.60
38902;DHT22;24661;53.566;9.910;2023-05-14T12:20:52;22.20;96.50
38902;DHT22;24661;53.566;9.910;2023-05-14T12:23:25;22.20;96.20
38902;DHT22;24661;53.566;9.910;2023-05-14T12:25:51;22.40;95.10
38902;DHT22;24661;53.566;9.910;2023-05-14T12:28:17;22.60;95.30
38902;DHT22;24661;53.566;9.910;2023-05-14T12:30:44;22.60;96.40
38902;DHT22;24661;53.566;9.910;2023-05-14T12:33:10;22.80;94.70
38902;DHT22;24661;53.566;9.910;2023-05-14T12:35:35;22.90;95.40
38902;DHT22;24661;53.566;9.910;2023-05-14T12:38:02;23.00;95.30
38902;DHT22;24661;53.566;9.910;2023-05-14T12:40:27;23.10;95.20
38902;DHT22;24661;53.566;9.910;2023-05-14T12:42:53;23.10;96.30
38902;DHT22;24661;53.566;9.910;2023-05-14T12:45:18;22.90;94.40
38902;DHT22;24661;53.566;9.910;2023-05-14T12:47:44;22.80;93.40
38902;DHT22;24661;53.566;9.910;2023-05-14T12:50:10;22.90;95.10
38902;DHT22;24661;53.566;9.910;2023-05-14T12:52:36;23.10;94.10
38902;DHT22;24661;53.566;9.910;2023-05-14T12:55:02;23.00;92.80
38902;DHT22;24661;53.566;9.910;2023-05-14T12:57:27;22.90;93.40
38902;DHT22;24661;53.566;9.910;2023-05-14T12:59:55;22.80;93.90
38902;DHT22;24661;53.566;9.910;2023-05-14T13:02:20;22.80;94.00
38902;DHT22;24661;53.566;9.910;2023-05-14T13:04:46;22.70;93.30
38902;DHT22;24661;53.566;9.910;2023-05-14T13:07:11;22.30;92.00
38902;DHT22;24661;53.566;9.910;2023-05-14T13:09:37;22.30;93.40
38902;DHT22;24661;53.566;9.910;2023-05-14T13:12:03;22.40;93.20
38902;DHT22;24661;53.566;9.910;2023-05-14T13:14:29;22.30;93.90
38902;DHT22;24661;53.566;9.910;2023-05-14T13:16:55;22.20;93.30
38902;DHT22;24661;53.566;9.910;2023-05-14T13:19:20;22.40;93.60
38902;DHT22;24661;53.566;9.910;2023-05-14T13:21:46;22.50;93.80
38902;DHT22;24661;53.566;9.910;2023-05-14T13:24:11;22.60;92.80
38902;DHT22;24661;53.566;9.910;2023-05-14T13:26:37;22.60;92.30
38902;DHT22;24661;53.566;9.910;2023-05-14T13:29:03;22.70;93.10
38902;DHT22;24661;53.566;9.910;2023-05-14T13:31:28;22.90;92.90
38902;DHT22;24661;53.566;9.910;2023-05-14T13:33:54;23.00;93.30
38902;DHT22;24661;53.566;9.910;2023-05-14T13:36:22;23.00;92.90
38902;DHT22;24661;53.566;9.910;2023-05-14T13:38:48;23.00;93.10
38902;DHT22;24661;53.566;9.910;2023-05-14T13:41:13;23.00;93.30
38902;DHT22;24661;53.566;9.910;2023-05-14T13:43:39;23.10;93.80
38902;DHT22;24661;53.566;9.910;2023-05-14T13:46:06;23.10;92.90
38902;DHT22;24661;53.566;9.910;2023-05-14T13:48:32;23.10;91.60
38902;DHT22;24661;53.566;9.910;2023-05-14T13:50:57;23.10;92.40
38902;DHT22;24661;53.566;9.910;2023-05-14T13:53:24;23.20;92.00
38902;DHT22;24661;53.566;9.910;2023-05-14T13:55:50;23.20;93.30
38902;DHT22;24661;53.566;9.910;2023-05-14T13:58:21;23.20;93.30
38902;DHT22;24661;53.566;9.910;2023-05-14T14:00:47;23.00;93.10
38902;DHT22;24661;53.566;9.910;2023-05-14T14:03:13;22.90;93.10
38902;DHT22;24661;53.566;9.910;2023-05-14T14:05:38;22.80;93.00
38902;DHT22;24661;53.566;9.910;2023-05-14T14:08:07;22.80;92.80
38902;DHT22;24661;53.566;9.910;2023-05-14T14:10:32;22.80;92.60
38902;DHT22;24661;53.566;9.910;2023-05-14T14:12:58;22.80;91.90
38902;DHT22;24661;53.566;9.910;2023-05-14T14:15:23;22.90;91.60
38902;DHT22;24661;53.566;9.910;2023-05-14T14:17:49;22.90;92.00
38902;DHT22;24661;53.566;9.910;2023-05-14T14:20:14;22.80;90.90
38902;DHT22;24661;53.566;9.910;2023-05-14T14:22:42;22.90;90.10
38902;DHT22;24661;53.566;9.910;2023-05-14T14:25:08;22.90;90.80
38902;DHT22;24661;53.566;9.910;2023-05-14T14:27:35;23.00;90.70
38902;DHT22;24661;53.566;9.910;2023-05-14T14:30:05;23.10;90.60
38902;DHT22;24661;53.566;9.910;2023-05-14T14:32:30;23.20;90.50
38902;DHT22;24661;53.566;9.910;2023-05-14T14:34:56;23.20;90.80
38902;DHT22;24661;53.566;9.910;2023-05-14T14:37:22;23.20;90.30
38902;DHT22;24661;53.566;9.910;2023-05-14T14:39:47;23.30;90.60
38902;DHT22;24661;53.566;9.910;2023-05-14T14:42:13;23.30;91.00
38902;DHT22;24661;53.566;9.910;2023-05-14T14:44:38;23.40;90.90
38902;DHT22;24661;53.566;9.910;2023-05-14T14:47:04;23.40;90.80
38902;DHT22;24661;53.566;9.910;2023-05-14T14:49:30;23.50;91.10
38902;DHT22;24661;53.566;9.910;2023-05-14T14:51:56;23.60;91.20
38902;DHT22;24661;53.566;9.910;2023-05-14T14:54:22;23.60;90.70
38902;DHT22;24661;53.566;9.910;2023-05-14T14:56:47;23.60;90.10
38902;DHT22;24661;53.566;9.910;2023-05-14T14:59:16;23.50;88.40
38902;DHT22;24661;53.566;9.910;2023-05-14T15:01:42;23.40;90.80
38902;DHT22;24661;53.566;9.910;2023-05-14T15:04:07;23.40;90.70
38902;DHT22;24661;53.566;9.910;2023-05-14T15:06:33;23.30;90.70
38902;DHT22;24661;53.566;9.910;2023-05-14T15:08:58;23.10;90.00
38902;DHT22;24661;53.566;9.910;2023-05-14T15:11:24;22.90;90.80
38902;DHT22;24661;53.566;9.910;2023-05-14T15:13:50;22.70;90.50
38902;DHT22;24661;53.566;9.910;2023-05-14T15:16:15;22.60;90.40
38902;DHT22;24661;53.566;9.910;2023-05-14T15:18:42;22.50;91.20
38902;DHT22;24661;53.566;9.910;2023-05-14T15:21:08;22.60;90.90
38902;DHT22;24661;53.566;9.910;2023-05-14T15:23:33;22.50;90.80
38902;DHT22;24661;53.566;9.910;2023-05-14T15:26:00;22.50;90.40
38902;DHT22;24661;53.566;9.910;2023-05-14T15:28:26;22.40;90.70
38902;DHT22;24661;53.566;9.910;2023-05-14T15:30:51;22.40;90.80
38902;DHT22;24661;53.566;9.910;2023-05-14T15:33:17;22.30;91.20
38902;DHT22;24661;53.566;9.910;2023-05-14T15:35:44;22.20;91.10
38902;DHT22;24661;53.566;9.910;2023-05-14T15:38:09;22.10;91.20